Latest Coastal Weather Observations for Whyalla

IDS60701

Issued at 5:55 am CST Wednesday 24 September 2014 (issued every 10 minutes, with the page automatically refreshed every 10 minutes)

About coastal observations | Map of coastal stations | Coastal observations for SA | Marine services | Other Formats
Station Details ID: 018120 Name: WHYALLA AERO Lat: -33.05 Lon: 137.52 Height: 6.5 m
Data from the previous 72 hours. | See also: Recent months at Whyalla
Date/Time
CST
Temp

°C
Wind Pressure Rain
since 9am
mm
Weather Cloud Vis
km
Sea
Height
m
Swell
Dir
 
Speed
knots
Gust
knots
hPa Trend Height
m
Period
s
Dir
24/05:30am 13.2 NW 7 9 1013.2 - 0.0 - Partly cloudy 10 - - - -
24/05:00am 12.9 NW 7 8 1013.2 - 0.0 - - 10 - - - -
24/04:30am 13.0 NW 6 8 1013.1 - 0.0 - - 10 - - - -
24/04:00am 12.9 NW 7 9 1013.4 - 0.0 - - 10 - - - -
24/03:30am 12.9 WNW 7 8 1013.6 - 0.0 - - 10 - - - -
24/03:00am 12.6 NNW 6 7 1013.2 - 0.0 - - 10 - - - -
24/02:30am 13.8 N 6 7 1013.2 - 0.0 - - 10 - - - -
24/02:00am 14.3 WSW 6 8 1013.5 - 0.0 - - 10 - - - -
24/01:30am 15.0 N 3 5 1013.4 - 0.0 - - 10 - - - -
24/01:00am 15.6 N 5 23 1013.9 - 0.0 - - 10 - - - -
24/12:30am 16.2 NNE 7 11 1014.1 - 0.0 - - 10 - - - -
24/12:00am 16.2 NNE 9 13 1014.4 - 0.0 - Cloudy 10 - - - -
 
Date/Time
CST
Temp

°C
Wind Pressure Rain
since 9am
mm
Weather Cloud Vis
km
Sea
Height
m
Swell
Dir
 
Speed
knots
Gust
knots
hPa Trend Height
m
Period
s
Dir
23/11:30pm 16.4 NNE 13 18 1014.9 - 0.0 - Cloudy 10 - - - -
23/11:00pm 17.1 N 15 21 1015.4 - 0.0 - Partly cloudy 10 - - - -
23/10:30pm 18.5 N 15 21 1015.5 - 0.0 - Partly cloudy 10 - - - -
23/10:00pm 18.6 N 9 12 1015.4 - 0.0 - Partly cloudy 10 - - - -
23/09:30pm 18.4 N 7 10 1015.4 - 0.0 - Cloudy 10 - - - -
23/09:00pm 18.3 N 6 9 1015.3 - 0.0 - Mostly cloudy 10 - - - -
23/08:30pm 18.8 NNW 8 10 1015.0 - 0.0 - Partly cloudy 10 - - - -
23/08:00pm 19.0 NNW 4 6 1013.9 - 0.0 - Partly cloudy 10 - - - -
23/07:30pm 19.3 NNE 14 22 1013.8 - 0.0 - Partly cloudy 10 - - - -
23/07:00pm 21.7 N 13 20 1014.4 - 0.0 - Cloudy 10 - - - -
23/06:30pm 21.5 NE 6 10 1013.4 - 0.0 - Partly cloudy 10 - - - -
23/06:00pm 22.1 NE 11 17 1013.3 - 0.0 - Cloudy 10 - - - -
23/05:30pm 22.3 NE 11 15 1013.2 - 0.0 - - 10 - - - -
23/05:00pm 23.6 ENE 12 16 1013.1 - 0.0 - Partly cloudy 10 - - - -
23/04:30pm 23.0 NW 5 6 1013.4 - 0.0 - Partly cloudy 10 - - - -
23/04:00pm 23.4 NNE 15 23 1013.4 - 0.0 - Cloudy 10 - - - -
23/03:30pm 25.7 N 13 18 1012.9 - 0.0 - Partly cloudy 10 - - - -
23/03:00pm 26.9 N 10 14 1012.7 - 0.0 - Cloudy 10 - - - -
23/02:30pm 26.4 NE 11 16 1013.0 - 0.0 - Cloudy 10 - - - -
23/02:00pm 25.4 NNE 11 17 1013.4 - 0.0 - Partly cloudy 10 - - - -
23/01:30pm 27.5 N 15 20 1014.0 - 0.0 - Partly cloudy 10 - - - -
23/01:00pm 26.2 N 14 21 1014.5 - 0.0 - Partly cloudy 10 - - - -
23/12:30pm 25.4 NNE 13 20 1014.9 - 0.0 - Partly cloudy 10 - - - -
23/12:00pm 25.0 N 12 17 1015.5 - 0.0 - Mostly cloudy 10 - - - -
23/11:30am 24.4 N 12 19 1016.1 - 0.0 - Partly cloudy 10 - - - -
23/11:00am 25.5 NE 13 20 1016.5 - 0.0 - - 10 - - - -
23/10:30am 23.9 NNE 13 20 1017.1 - 0.0 - - 10 - - - -
23/10:00am 23.5 N 15 19 1017.5 - 0.0 - - 10 - - - -
23/09:30am 22.4 NNE 13 18 1017.8 - 0.0 - - 10 - - - -
23/09:00am 22.0 NNE 14 22 1017.9 - 0.0 - - 10 - - - -
23/08:30am 20.5 NE 12 19 1018.3 - 0.0 - - 10 - - - -
23/08:00am 19.6 NE 12 16 1018.4 - 0.0 - - 10 - - - -
23/07:30am 18.5 ENE 10 13 1018.5 - 0.0 - - 10 - - - -
23/07:00am 17.0 ENE 8 11 1018.4 - 0.0 - - 10 - - - -
23/06:30am 15.3 ENE 5 7 1018.6 - 0.0 - - 10 - - - -
23/06:00am 14.7 N 4 5 1018.6 - 0.0 - - 10 - - - -
23/05:30am 15.6 NNE 5 8 1018.5 - 0.0 - - 10 - - - -
23/05:00am 15.3 NE 8 10 1018.5 - 0.0 - - 10 - - - -
23/04:30am 16.1 NE 7 9 1018.6 - 0.0 - - 10 - - - -
23/04:00am 16.6 NE 6 9 1018.6 - 0.0 - - 10 - - - -
23/03:30am 16.5 NE 6 8 1018.6 - 0.0 - - 10 - - - -
23/03:00am 16.9 NE 6 9 1018.6 - 0.0 - - 10 - - - -
23/02:30am 16.3 NNE 7 10 1018.7 - 0.0 - - 10 - - - -
23/02:00am 16.6 NE 7 10 1018.9 - 0.0 - - 10 - - - -
23/01:30am 16.0 NNE 6 8 1019.1 - 0.0 - - 10 - - - -
23/01:00am 14.8 NNE 6 7 1019.4 - 0.0 - - 10 - - - -
23/12:30am 16.7 NNE 5 6 1019.6 - 0.0 - - 10 - - - -
23/12:00am 17.7 NNE 7 8 1019.6 - 0.0 - - 10 - - - -
 
Date/Time
CST
Temp

°C
Wind Pressure Rain
since 9am
mm
Weather Cloud Vis
km
Sea
Height
m
Swell
Dir
 
Speed
knots
Gust
knots
hPa Trend Height
m
Period
s
Dir
22/11:30pm 15.1 NNE 3 5 1019.7 - 0.0 - - 10 - - - -
22/11:00pm 18.1 NNE 7 9 1019.9 - 0.0 - - 10 - - - -
22/10:30pm 19.2 NNE 7 10 1020.2 - 0.0 - - 10 - - - -
22/10:00pm 18.9 NNE 8 10 1020.3 - 0.0 - - 10 - - - -
22/09:30pm 19.8 NNE 7 9 1020.5 - 0.0 - - 10 - - - -
22/09:00pm 19.9 NNE 9 11 1020.4 - 0.0 - - 10 - - - -
22/08:30pm 19.0 NNE 7 8 1020.2 - 0.0 - - 10 - - - -
22/08:00pm 20.0 NNE 5 7 1019.8 - 0.0 - - 10 - - - -
22/07:30pm 18.5 NE 6 7 1019.4 - 0.0 - - 10 - - - -
22/07:00pm 19.2 E 6 6 1019.2 - 0.0 - - 10 - - - -
22/06:30pm 20.5 E 7 9 1018.8 - 0.0 - - 10 - - - -
22/06:00pm 21.6 E 7 10 1018.5 - 0.0 - - 10 - - - -
22/05:30pm 23.1 E 8 11 1018.3 - 0.0 - - 10 - - - -
22/05:00pm 25.5 E 8 10 1018.2 - 0.0 - - 10 - - - -
22/04:30pm 27.9 NE 11 17 1018.0 - 0.0 - - 10 - - - -
22/04:00pm 28.1 NE 13 21 1017.9 - 0.0 - - 10 - - - -
22/03:30pm 28.0 NE 13 21 1018.3 - 0.0 - - 10 - - - -
22/03:00pm 27.7 NNE 13 20 1018.6 - 0.0 - - 10 - - - -
22/02:30pm 27.3 NNE 12 19 1019.2 - 0.0 - - 10 - - - -
22/02:00pm 27.0 NNE 12 17 1019.7 - 0.0 - - 10 - - - -
22/01:30pm 26.9 N 14 20 1020.2 - 0.0 - - 10 - - - -
22/01:00pm 27.9 N 12 19 1020.6 - 0.0 - - 10 - - - -
22/12:30pm 26.3 N 16 24 1021.2 - 0.0 - - 10 - - - -
22/12:00pm 26.5 NNE 11 19 1021.7 - 0.0 - - 10 - - - -
22/11:30am 24.9 N 15 22 1022.4 - 0.0 - - 10 - - - -
22/11:04am 25.2 NNE 16 26 1022.9 - 0.0 - - 10 - - - -
22/11:00am 24.7 NNE 15 24 1023.1 - 0.0 - - 10 - - - -
22/10:30am 24.2 NNE 14 23 1023.7 - 0.0 - - 10 - - - -
22/10:00am 23.5 NNE 11 17 1024.1 - 0.0 - - 10 - - - -
22/09:30am 21.7 NNE 9 13 1024.4 - 0.0 - - 10 - - - -
22/09:00am 20.6 NNE 5 8 1024.6 - 0.0 - - 10 - - - -
22/08:30am 18.8 CALM 0 0 1024.8 - 0.0 - - 10 - - - -
22/08:00am 15.0 NNW 1 3 1024.8 - 0.0 - - 10 - - - -
22/07:30am 10.4 NW 3 4 1024.8 - 0.0 - - 10 - - - -
22/07:00am 6.2 NW 4 6 1024.8 - 0.0 - - 10 - - - -
22/06:30am 3.8 WNW 5 6 1024.7 - 0.0 - - 10 - - - -
22/06:00am 3.5 NW 3 7 1024.6 - 0.0 - - 10 - - - -
22/05:30am 4.1 NNW 5 8 1024.2 - 0.0 - - 10 - - - -
22/05:00am 4.0 NW 6 9 1024.3 - 0.0 - - 10 - - - -
22/04:30am 4.5 NW 5 6 1024.1 - 0.0 - - 10 - - - -
22/04:00am 4.1 WNW 6 8 1023.9 - 0.0 - - 10 - - - -
22/03:30am 5.3 NW 4 5 1023.7 - 0.0 - - 10 - - - -
22/03:00am 5.2 NW 4 6 1024.0 - 0.0 - - 10 - - - -
22/02:30am 6.2 NNW 4 5 1024.1 - 0.0 - - 10 - - - -
22/02:00am 6.4 NNW 4 5 1024.4 - 0.0 - - 10 - - - -
22/01:30am 6.5 NW 5 6 1024.9 - 0.0 - - 10 - - - -
22/01:00am 6.7 WNW 5 6 1025.1 - 0.0 - - 10 - - - -
22/12:30am 6.9 WNW 6 7 1024.9 - 0.0 - - 10 - - - -
22/12:00am 8.3 W 4 5 1024.7 - 0.0 - - 10 - - - -
 
Date/Time
CST
Temp

°C
Wind Pressure Rain
since 9am
mm
Weather Cloud Vis
km
Sea
Height
m
Swell
Dir
 
Speed
knots
Gust
knots
hPa Trend Height
m
Period
s
Dir
21/11:30pm 8.4 W 5 6 1024.7 - 0.0 - - 10 - - - -
21/11:00pm 8.3 WNW 6 7 1024.9 - 0.0 - - 10 - - - -
21/10:30pm 9.8 CALM 0 0 1025.0 - 0.0 - - 10 - - - -
21/10:00pm 11.1 CALM 0 1 1025.2 - 0.0 - - 10 - - - -
21/09:30pm 12.1 CALM 0 2 1025.4 - 0.0 - - 10 - - - -
21/09:00pm 14.5 S 5 7 1025.6 - 0.0 - - 10 - - - -
21/08:30pm 15.3 S 7 9 1025.7 - 0.0 - - 10 - - - -
21/08:00pm 15.3 S 6 8 1025.8 - 0.0 - - 10 - - - -
21/07:30pm 16.0 S 7 8 1025.6 - 0.0 - - 10 - - - -
21/07:00pm 16.9 SSW 7 8 1025.5 - 0.0 - - 10 - - - -
21/06:30pm 18.0 SSW 6 7 1025.0 - 0.0 - - 10 - - - -
21/06:00pm 20.2 S 7 9 1024.8 - 0.0 - - 10 - - - -
21/05:30pm 21.9 S 10 12 1024.6 - 0.0 - - 10 - - - -
21/05:00pm 22.3 S 10 12 1024.6 - 0.0 - - 10 - - - -
21/04:30pm 22.8 S 8 10 1024.5 - 0.0 - - 10 - - - -
21/04:00pm 23.0 S 8 10 1024.5 - 0.0 - - 10 - - - -
21/03:30pm 23.1 SSE 8 11 1024.6 - 0.0 - - 10 - - - -
21/03:00pm 23.1 SSE 9 11 1025.1 - 0.0 - - 10 - - - -
21/02:30pm 22.9 SE 9 11 1025.4 - 0.0 - - 10 - - - -
21/02:00pm 23.3 E 8 11 1025.7 - 0.0 - - 10 - - - -
21/01:30pm 23.0 E 9 12 1026.2 - 0.0 - - 10 - - - -
21/01:00pm 23.3 E 9 11 1026.7 - 0.0 - - 10 - - - -
21/12:30pm 21.8 ESE 10 13 1027.4 - 0.0 - - 10 - - - -
21/12:00pm 21.9 ESE 10 12 1027.8 - 0.0 - - 10 - - - -
21/11:30am 21.2 E 9 12 1028.4 - 0.0 - - 10 - - - -
21/11:00am 21.2 E 9 12 1028.6 - 0.0 - - 10 - - - -
21/10:30am 21.3 ESE 7 11 1028.8 - 0.0 - - 10 - - - -
21/10:00am 20.8 E 6 9 1029.0 - 0.0 - - 10 - - - -
21/09:30am 20.9 NNW 3 7 1029.1 - 0.0 - - 10 - - - -
21/09:00am 20.0 N 3 7 1029.1 - 0.0 - - 10 - - - -
21/08:30am 18.2 NW 3 5 1029.0 - 0.0 - - 10 - - - -
21/08:00am 15.6 WNW 4 5 1028.7 - 0.0 - - 10 - - - -
21/07:30am 12.3 NW 3 4 1028.4 - 0.0 - - 10 - - - -
21/07:00am 8.6 NNW 4 5 1028.2 - 0.0 - - 10 - - - -
21/06:30am 6.2 NNW 4 5 1027.8 - 0.0 - - 10 - - - -
21/06:00am 6.5 NW 6 7 1027.4 - 0.0 - - 10 - - - -

Other Formats:

Comma delimited format used in spreadsheet applications
http://www.bom.gov.au/fwo/IDS60701/IDS60701.95664.axf

JavaScript Object Notation format (JSON) in row-major order
http://www.bom.gov.au/fwo/IDS60701/IDS60701.95664.json